createdAt,value
2022-10-09T00:01:15.870Z,100.00
2022-10-09T00:03:45.110Z,100.00
2022-10-09T00:06:24.669Z,100.00
2022-10-09T00:08:51.919Z,100.00
2022-10-09T00:11:25.075Z,100.00
2022-10-09T00:13:53.675Z,100.00
2022-10-09T00:16:22.568Z,100.00
2022-10-09T00:18:50.670Z,100.00
2022-10-09T00:21:32.522Z,100.00
2022-10-09T00:24:01.718Z,100.00
2022-10-09T00:26:28.800Z,100.00
2022-10-09T00:28:56.049Z,100.00
2022-10-09T00:31:23.083Z,100.00
2022-10-09T00:33:49.883Z,100.00
2022-10-09T00:36:20.168Z,100.00
2022-10-09T00:38:47.312Z,100.00
2022-10-09T00:41:20.743Z,100.00
2022-10-09T00:43:50.761Z,100.00
2022-10-09T00:46:28.855Z,100.00
2022-10-09T00:49:07.804Z,100.00
2022-10-09T00:51:35.220Z,100.00
2022-10-09T00:54:05.023Z,100.00
2022-10-09T00:56:32.076Z,100.00
2022-10-09T00:58:59.074Z,100.00
2022-10-09T01:01:26.442Z,100.00
2022-10-09T01:03:53.251Z,100.00
2022-10-09T01:06:54.367Z,100.00
2022-10-09T01:09:31.108Z,100.00
2022-10-09T01:12:15.499Z,100.00
2022-10-09T01:14:55.343Z,100.00
2022-10-09T01:17:47.956Z,100.00
2022-10-09T01:20:57.098Z,100.00
2022-10-09T01:23:33.036Z,100.00
2022-10-09T01:26:20.725Z,100.00
2022-10-09T01:28:52.372Z,100.00
2022-10-09T01:31:21.451Z,100.00
2022-10-09T01:33:48.769Z,100.00
2022-10-09T01:36:17.701Z,100.00
2022-10-09T01:38:46.835Z,100.00
2022-10-09T01:41:13.562Z,100.00
2022-10-09T01:43:41.236Z,100.00
2022-10-09T01:46:25.386Z,100.00
2022-10-09T01:49:29.788Z,100.00
2022-10-09T01:52:11.549Z,100.00
2022-10-09T01:55:07.350Z,100.00
2022-10-09T01:58:03.247Z,100.00
2022-10-09T02:00:41.268Z,100.00
2022-10-09T02:03:12.303Z,100.00
2022-10-09T02:05:42.126Z,100.00
2022-10-09T02:08:13.857Z,100.00
2022-10-09T02:10:43.482Z,100.00
2022-10-09T02:13:10.427Z,100.00
2022-10-09T02:15:55.678Z,100.00
2022-10-09T02:18:39.616Z,100.00
2022-10-09T02:21:16.836Z,100.00
2022-10-09T02:23:46.239Z,100.00
2022-10-09T02:26:14.012Z,100.00
2022-10-09T02:28:45.730Z,100.00
2022-10-09T02:31:18.679Z,100.00
2022-10-09T02:33:45.487Z,100.00
2022-10-09T02:36:12.203Z,100.00
2022-10-09T02:38:38.898Z,100.00
2022-10-09T02:41:05.676Z,100.00
2022-10-09T02:43:32.313Z,100.00
2022-10-09T02:45:59.063Z,100.00
2022-10-09T02:48:25.770Z,100.00
2022-10-09T02:50:52.520Z,100.00
2022-10-09T02:53:19.223Z,100.00
2022-10-09T02:55:46.354Z,100.00
2022-10-09T02:58:13.126Z,100.00
2022-10-09T03:00:39.842Z,100.00
2022-10-09T03:03:06.730Z,100.00
2022-10-09T03:05:33.592Z,100.00
2022-10-09T03:08:00.325Z,100.00
2022-10-09T03:10:26.999Z,100.00
2022-10-09T03:12:53.706Z,100.00
2022-10-09T03:15:20.416Z,100.00
2022-10-09T03:17:47.136Z,100.00
2022-10-09T03:20:13.905Z,100.00
2022-10-09T03:22:40.589Z,100.00
2022-10-09T03:25:08.010Z,100.00
2022-10-09T03:27:35.795Z,100.00
2022-10-09T03:30:02.803Z,100.00
2022-10-09T03:32:29.571Z,100.00
2022-10-09T03:34:56.269Z,100.00
2022-10-09T03:37:22.924Z,100.00
2022-10-09T03:39:49.688Z,100.00
2022-10-09T03:42:16.436Z,100.00
2022-10-09T03:44:43.169Z,100.00
2022-10-09T03:47:09.926Z,100.00
2022-10-09T03:49:36.606Z,100.00
2022-10-09T03:52:03.398Z,100.00
2022-10-09T03:54:30.098Z,100.00
2022-10-09T03:56:56.824Z,100.00
2022-10-09T03:59:23.597Z,100.00
2022-10-09T04:01:50.294Z,100.00
2022-10-09T04:04:17.041Z,100.00
2022-10-09T04:06:44.302Z,100.00
2022-10-09T04:09:11.102Z,100.00
2022-10-09T04:11:37.991Z,100.00
2022-10-09T04:14:04.788Z,100.00
2022-10-09T04:16:31.594Z,100.00
2022-10-09T04:18:59.152Z,100.00
2022-10-09T04:21:25.963Z,100.00
2022-10-09T04:23:52.767Z,100.00
2022-10-09T04:26:19.466Z,100.00
2022-10-09T04:28:46.265Z,100.00
2022-10-09T04:31:13.170Z,100.00
2022-10-09T04:33:39.921Z,100.00
2022-10-09T04:36:07.340Z,100.00
2022-10-09T04:38:34.223Z,100.00
2022-10-09T04:41:06.645Z,100.00
2022-10-09T04:43:34.865Z,100.00
2022-10-09T04:46:10.996Z,100.00
2022-10-09T04:48:39.716Z,100.00
2022-10-09T04:51:07.725Z,100.00
2022-10-09T04:53:36.052Z,100.00
2022-10-09T04:56:09.901Z,100.00
2022-10-09T04:58:37.120Z,100.00
2022-10-09T05:01:09.050Z,100.00
2022-10-09T05:03:36.635Z,100.00
2022-10-09T05:06:05.641Z,100.00
2022-10-09T05:08:32.857Z,100.00
2022-10-09T05:11:04.803Z,100.00
2022-10-09T05:13:34.902Z,100.00
2022-10-09T05:16:02.935Z,100.00
2022-10-09T05:18:30.306Z,100.00
2022-10-09T05:20:57.357Z,100.00
2022-10-09T05:23:24.218Z,100.00
2022-10-09T05:25:58.509Z,100.00
2022-10-09T05:28:26.428Z,100.00
2022-10-09T05:30:53.711Z,100.00
2022-10-09T05:33:20.838Z,100.00
2022-10-09T05:35:58.917Z,100.00
2022-10-09T05:38:26.753Z,100.00
2022-10-09T05:41:01.809Z,100.00
2022-10-09T05:43:31.852Z,100.00
2022-10-09T05:46:23.408Z,100.00
2022-10-09T05:48:55.363Z,100.00
2022-10-09T05:51:24.722Z,100.00
2022-10-09T05:53:51.658Z,100.00
2022-10-09T05:56:23.826Z,100.00
2022-10-09T05:58:59.805Z,100.00
2022-10-09T06:01:29.763Z,100.00
2022-10-09T06:03:58.555Z,100.00
2022-10-09T06:06:28.084Z,100.00
2022-10-09T06:08:55.026Z,100.00
2022-10-09T06:11:28.722Z,100.00
2022-10-09T06:13:56.392Z,100.00
2022-10-09T06:16:25.573Z,100.00
2022-10-09T06:18:54.329Z,100.00
2022-10-09T06:21:21.821Z,100.00
2022-10-09T06:23:53.100Z,100.00
2022-10-09T06:26:21.360Z,100.00
2022-10-09T06:28:48.954Z,100.00
2022-10-09T06:31:21.414Z,100.00
2022-10-09T06:33:49.846Z,100.00
2022-10-09T06:36:23.312Z,100.00
2022-10-09T06:38:50.637Z,100.00
2022-10-09T06:41:23.258Z,100.00
2022-10-09T06:44:02.134Z,100.00
2022-10-09T06:46:34.399Z,100.00
2022-10-09T06:49:01.730Z,100.00
2022-10-09T06:51:29.581Z,100.00
2022-10-09T06:53:59.585Z,100.00
2022-10-09T06:56:29.985Z,100.00
2022-10-09T06:58:59.608Z,100.00
2022-10-09T07:01:30.307Z,100.00
2022-10-09T07:03:59.666Z,100.00
2022-10-09T07:06:31.475Z,100.00
2022-10-09T07:09:01.094Z,100.00
2022-10-09T07:11:36.035Z,100.00
2022-10-09T07:14:05.454Z,100.00
2022-10-09T07:16:39.142Z,100.00
2022-10-09T07:19:08.120Z,100.00
2022-10-09T07:21:35.541Z,100.00
2022-10-09T07:24:03.873Z,100.00
2022-10-09T07:26:32.762Z,100.00
2022-10-09T07:29:00.000Z,100.00
2022-10-09T07:31:26.862Z,100.00
2022-10-09T07:33:56.514Z,100.00
2022-10-09T07:36:23.922Z,100.00
2022-10-09T07:38:59.886Z,100.00
2022-10-09T07:41:28.812Z,100.00
2022-10-09T07:43:56.112Z,100.00
2022-10-09T07:46:24.499Z,100.00
2022-10-09T07:48:51.726Z,100.00
2022-10-09T07:51:24.449Z,100.00
2022-10-09T07:53:52.378Z,100.00
2022-10-09T07:56:21.917Z,100.00
2022-10-09T07:58:57.469Z,100.00
2022-10-09T08:01:28.178Z,100.00
2022-10-09T08:03:55.263Z,99.80
2022-10-09T08:06:22.162Z,98.28
2022-10-09T08:08:53.608Z,97.33
2022-10-09T08:11:22.359Z,95.84
2022-10-09T08:13:50.007Z,94.59
2022-10-09T08:16:21.367Z,93.49
2022-10-09T08:18:48.495Z,91.54
2022-10-09T08:21:19.105Z,90.87
2022-10-09T08:23:46.489Z,89.12
2022-10-09T08:26:21.226Z,86.81
2022-10-09T08:28:57.460Z,85.47
2022-10-09T08:31:25.298Z,83.75
2022-10-09T08:33:53.860Z,81.74
2022-10-09T08:36:21.840Z,81.19
2022-10-09T08:38:49.567Z,79.69
2022-10-09T08:41:49.089Z,77.60
2022-10-09T08:44:22.125Z,78.64
2022-10-09T08:47:06.533Z,76.42
2022-10-09T08:49:55.194Z,73.96
2022-10-09T08:52:35.859Z,72.45
2022-10-09T08:55:28.647Z,69.70
2022-10-09T08:57:59.859Z,69.49
2022-10-09T09:00:40.103Z,67.72
2022-10-09T09:03:31.253Z,69.20
2022-10-09T09:06:19.142Z,66.58
2022-10-09T09:09:04.150Z,65.95
2022-10-09T09:11:55.394Z,64.74
2022-10-09T09:14:47.223Z,65.76
2022-10-09T09:17:41.371Z,64.36
2022-10-09T09:20:26.749Z,63.54
2022-10-09T09:22:53.626Z,62.53
2022-10-09T09:25:23.710Z,61.21
2022-10-09T09:27:53.933Z,61.66
2022-10-09T09:30:25.354Z,61.40
2022-10-09T09:33:22.175Z,62.13
2022-10-09T09:35:52.023Z,60.65
2022-10-09T09:38:18.794Z,57.69
2022-10-09T09:40:47.335Z,55.55
2022-10-09T09:43:26.039Z,55.97
2022-10-09T09:46:00.528Z,55.13
2022-10-09T09:48:32.531Z,54.73
2022-10-09T09:51:23.455Z,57.12
2022-10-09T09:54:16.345Z,55.19
2022-10-09T09:59:38.325Z,55.05
2022-10-09T10:02:21.758Z,51.50
2022-10-09T10:05:13.458Z,52.18
2022-10-09T10:07:40.651Z,54.95
2022-10-09T10:10:15.536Z,51.18
2022-10-09T10:12:44.868Z,54.36
2022-10-09T10:15:32.113Z,51.31
2022-10-09T10:18:05.017Z,53.49
2022-10-09T10:20:41.879Z,52.46
2022-10-09T10:23:31.112Z,50.09
2022-10-09T10:26:01.246Z,50.82
2022-10-09T10:28:35.547Z,50.16
2022-10-09T10:31:07.969Z,48.87
2022-10-09T10:33:38.113Z,50.80
2022-10-09T10:36:09.638Z,49.96
2022-10-09T10:38:44.660Z,47.74
2022-10-09T10:41:20.016Z,50.95
2022-10-09T10:44:07.888Z,48.90
2022-10-09T10:46:49.057Z,45.94
2022-10-09T10:49:20.869Z,46.01
2022-10-09T10:52:02.725Z,44.99
2022-10-09T10:54:51.891Z,45.46
2022-10-09T10:57:26.053Z,44.70
2022-10-09T11:00:10.969Z,43.04
2022-10-09T11:03:03.136Z,42.36
2022-10-09T11:05:38.591Z,43.07
2022-10-09T11:08:10.273Z,41.15
2022-10-09T11:10:43.598Z,40.24
2022-10-09T11:13:33.748Z,40.21
2022-10-09T11:16:15.044Z,39.74
2022-10-09T11:18:54.034Z,39.17
2022-10-09T11:21:43.590Z,38.05
2022-10-09T11:24:40.627Z,38.37
2022-10-09T11:27:14.736Z,36.89
2022-10-09T11:29:48.700Z,35.99
2022-10-09T11:32:37.587Z,35.82
2022-10-09T11:35:20.334Z,35.09
2022-10-09T11:37:57.675Z,34.30
2022-10-09T11:40:30.208Z,34.42
2022-10-09T11:43:02.727Z,34.32
2022-10-09T11:45:32.000Z,34.13
2022-10-09T11:48:06.862Z,34.26
2022-10-09T11:50:43.094Z,33.38
2022-10-09T11:53:19.795Z,34.01
2022-10-09T11:55:48.245Z,33.67
2022-10-09T11:58:26.118Z,33.66
2022-10-09T12:00:58.504Z,32.77
2022-10-09T12:04:02.514Z,32.24
2022-10-09T12:06:30.493Z,32.32
2022-10-09T12:09:22.483Z,31.38
2022-10-09T12:12:08.593Z,31.57
2022-10-09T12:14:38.811Z,32.40
2022-10-09T12:17:26.912Z,31.47
2022-10-09T12:20:06.096Z,30.95
2022-10-09T12:22:56.376Z,29.91
2022-10-09T12:29:04.969Z,29.85
2022-10-09T12:31:41.901Z,29.97
2022-10-09T12:34:20.975Z,29.70
2022-10-09T12:36:47.783Z,29.75
2022-10-09T12:39:23.480Z,29.50
2022-10-09T12:41:58.328Z,29.82
2022-10-09T12:44:41.361Z,29.40
2022-10-09T12:47:17.460Z,29.07
2022-10-09T12:49:59.652Z,29.65
2022-10-09T12:52:31.179Z,29.15
2022-10-09T12:55:23.250Z,29.17
2022-10-09T12:57:51.347Z,29.26
2022-10-09T13:00:18.765Z,29.26
2022-10-09T13:02:46.253Z,29.94
2022-10-09T13:05:13.327Z,30.17
2022-10-09T13:07:51.813Z,29.90
2022-10-09T13:10:24.663Z,29.91
2022-10-09T13:12:55.567Z,29.51
2022-10-09T13:15:35.689Z,29.14
2022-10-09T13:18:23.689Z,29.11
2022-10-09T13:21:24.864Z,30.06
2022-10-09T13:23:51.727Z,29.94
2022-10-09T13:26:30.415Z,30.06
2022-10-09T13:29:01.387Z,29.20
2022-10-09T13:31:28.690Z,29.42
2022-10-09T13:34:07.492Z,29.00
2022-10-09T13:36:34.457Z,29.61
2022-10-09T13:39:01.376Z,30.05
2022-10-09T13:41:28.452Z,29.66
2022-10-09T13:43:55.415Z,30.17
2022-10-09T13:46:22.282Z,30.37
2022-10-09T13:48:49.108Z,30.75
2022-10-09T13:51:15.929Z,31.15
2022-10-09T13:53:42.666Z,31.84
2022-10-09T13:56:09.620Z,31.73
2022-10-09T13:58:36.902Z,31.99
2022-10-09T14:01:04.211Z,32.35
2022-10-09T14:03:30.998Z,31.87
2022-10-09T14:06:03.143Z,32.30
2022-10-09T14:08:34.830Z,33.35
2022-10-09T14:11:03.683Z,34.49
2022-10-09T14:13:30.756Z,35.44
2022-10-09T14:15:57.526Z,36.80
2022-10-09T14:18:24.368Z,37.84
2022-10-09T14:20:51.190Z,38.74
2022-10-09T14:23:17.886Z,38.68
2022-10-09T14:25:44.592Z,38.92
2022-10-09T14:28:11.531Z,39.59
2022-10-09T14:30:43.131Z,40.05
2022-10-09T14:33:09.909Z,39.75
2022-10-09T14:35:36.734Z,40.58
2022-10-09T14:38:03.443Z,41.13
2022-10-09T14:40:30.129Z,40.70
2022-10-09T14:42:56.999Z,40.73
2022-10-09T14:45:23.712Z,41.48
2022-10-09T14:47:50.388Z,41.16
2022-10-09T14:50:17.203Z,41.49
2022-10-09T14:52:44.651Z,41.71
2022-10-09T14:55:11.455Z,41.70
2022-10-09T14:57:38.251Z,41.63
2022-10-09T15:00:05.974Z,41.41
2022-10-09T15:02:32.741Z,41.80
2022-10-09T15:04:59.588Z,42.16
2022-10-09T15:07:28.076Z,41.83
2022-10-09T15:09:55.077Z,42.35
2022-10-09T15:12:21.832Z,42.13
2022-10-09T15:14:49.547Z,42.60
2022-10-09T15:17:16.462Z,42.76
2022-10-09T15:19:43.474Z,43.27
2022-10-09T15:22:10.589Z,43.45
2022-10-09T15:24:37.701Z,44.01
2022-10-09T15:27:05.254Z,44.38
2022-10-09T15:29:32.313Z,44.47
2022-10-09T15:31:59.139Z,44.61
2022-10-09T15:34:27.289Z,45.36
2022-10-09T15:36:54.271Z,45.87
2022-10-09T15:39:23.614Z,45.61
2022-10-09T15:41:50.406Z,45.70
2022-10-09T15:44:20.374Z,45.68
2022-10-09T15:46:48.625Z,46.21
2022-10-09T15:49:16.408Z,45.97
2022-10-09T15:51:43.845Z,46.42
2022-10-09T15:54:11.989Z,47.01
2022-10-09T15:56:40.158Z,47.28
2022-10-09T15:59:10.654Z,47.53
2022-10-09T16:01:37.594Z,48.00
2022-10-09T16:04:09.601Z,48.14
2022-10-09T16:06:36.471Z,48.29
2022-10-09T16:09:05.099Z,48.23
2022-10-09T16:11:32.180Z,48.48
2022-10-09T16:13:59.288Z,49.20
2022-10-09T16:16:27.614Z,49.40
2022-10-09T16:18:56.002Z,49.60
2022-10-09T16:21:26.593Z,49.61
2022-10-09T16:23:58.361Z,50.15
2022-10-09T16:26:26.923Z,50.88
2022-10-09T16:28:53.831Z,50.96
2022-10-09T16:31:22.914Z,51.78
2022-10-09T16:33:49.842Z,51.86
2022-10-09T16:36:16.714Z,52.17
2022-10-09T16:38:43.668Z,53.23
2022-10-09T16:41:13.502Z,53.33
2022-10-09T16:43:40.929Z,53.59
2022-10-09T16:46:09.673Z,54.65
2022-10-09T16:48:36.412Z,54.85
2022-10-09T16:51:07.736Z,55.95
2022-10-09T16:53:34.705Z,56.81
2022-10-09T16:56:10.180Z,58.67
2022-10-09T16:58:37.546Z,60.04
2022-10-09T17:01:09.470Z,60.87
2022-10-09T17:03:37.338Z,62.01
2022-10-09T17:06:15.318Z,63.35
2022-10-09T17:08:42.862Z,64.32
2022-10-09T17:11:13.014Z,65.23
2022-10-09T17:13:41.147Z,65.93
2022-10-09T17:16:13.202Z,66.56
2022-10-09T17:18:42.550Z,67.73
2022-10-09T17:21:16.074Z,69.23
2022-10-09T17:23:47.320Z,70.75
2022-10-09T17:26:20.316Z,71.74
2022-10-09T17:28:48.449Z,71.91
2022-10-09T17:31:18.452Z,72.21
2022-10-09T17:33:48.114Z,71.59
2022-10-09T17:36:23.311Z,71.67
2022-10-09T17:38:53.875Z,73.05
2022-10-09T17:41:23.633Z,73.24
2022-10-09T17:43:52.236Z,74.02
2022-10-09T17:46:19.918Z,74.60
2022-10-09T17:48:52.626Z,74.75
2022-10-09T17:51:25.543Z,75.11
2022-10-09T17:53:53.577Z,76.04
2022-10-09T17:56:20.375Z,76.09
2022-10-09T17:58:50.135Z,76.56
2022-10-09T18:01:17.553Z,76.89
2022-10-09T18:03:45.060Z,77.17
2022-10-09T18:06:15.246Z,77.62
2022-10-09T18:08:42.246Z,78.03
2022-10-09T18:11:12.619Z,78.37
2022-10-09T18:13:39.525Z,79.32
2022-10-09T18:16:18.528Z,79.68
2022-10-09T18:18:46.113Z,80.04
2022-10-09T18:21:16.842Z,80.74
2022-10-09T18:23:47.612Z,81.59
2022-10-09T18:26:17.869Z,81.42
2022-10-09T18:28:48.247Z,81.84
2022-10-09T18:31:19.290Z,82.12
2022-10-09T18:33:46.386Z,82.63
2022-10-09T18:36:36.027Z,83.30
2022-10-09T18:39:13.443Z,84.20
2022-10-09T18:41:41.804Z,85.25
2022-10-09T18:47:11.836Z,83.91
2022-10-09T18:49:52.432Z,84.07
2022-10-09T18:52:19.661Z,84.09
2022-10-09T18:54:50.586Z,85.07
2022-10-09T18:57:17.359Z,85.80
2022-10-09T18:59:44.401Z,85.56
2022-10-09T19:02:11.514Z,85.65
2022-10-09T19:04:38.702Z,85.95
2022-10-09T19:07:05.405Z,86.33
2022-10-09T19:09:32.219Z,87.04
2022-10-09T19:11:59.011Z,87.51
2022-10-09T19:14:29.062Z,87.38
2022-10-09T19:16:55.952Z,87.33
2022-10-09T19:19:23.136Z,87.88
2022-10-09T19:21:49.973Z,88.03
2022-10-09T19:24:17.485Z,87.70
2022-10-09T19:26:44.284Z,87.50
2022-10-09T19:29:11.512Z,87.72
2022-10-09T19:31:38.501Z,87.82
2022-10-09T19:34:05.724Z,88.25
2022-10-09T19:36:34.340Z,89.53
2022-10-09T19:39:03.111Z,90.81
2022-10-09T19:41:38.864Z,90.77
2022-10-09T19:44:06.641Z,90.23
2022-10-09T19:46:37.016Z,90.30
2022-10-09T19:49:07.184Z,90.32
2022-10-09T19:51:35.744Z,90.13
2022-10-09T19:54:08.014Z,91.05
2022-10-09T19:56:36.809Z,91.13
2022-10-09T19:59:07.146Z,90.38
2022-10-09T20:01:35.936Z,89.95
2022-10-09T20:04:07.501Z,91.32
2022-10-09T20:06:39.737Z,92.35
2022-10-09T20:09:09.000Z,92.56
2022-10-09T20:11:38.474Z,92.07
2022-10-09T20:14:05.769Z,92.18
2022-10-09T20:16:33.552Z,92.41
2022-10-09T20:19:01.189Z,91.96
2022-10-09T20:21:30.689Z,91.98
2022-10-09T20:23:58.976Z,91.64
2022-10-09T20:26:26.165Z,90.72
2022-10-09T20:28:54.022Z,90.74
2022-10-09T20:31:23.826Z,91.32
2022-10-09T20:33:52.116Z,91.59
2022-10-09T20:36:24.236Z,92.13
2022-10-09T20:38:51.052Z,92.13
2022-10-09T20:41:18.050Z,92.09
2022-10-09T20:43:45.390Z,92.50
2022-10-09T20:46:14.587Z,92.63
2022-10-09T20:48:42.666Z,92.16
2022-10-09T20:51:10.176Z,92.55
2022-10-09T20:53:37.463Z,93.19
2022-10-09T20:56:09.378Z,93.54
2022-10-09T20:58:36.321Z,93.73
2022-10-09T21:01:10.772Z,93.66
2022-10-09T21:03:38.575Z,93.92
2022-10-09T21:06:07.842Z,94.92
2022-10-09T21:08:35.645Z,95.56
2022-10-09T21:11:05.920Z,96.58
2022-10-09T21:13:33.030Z,96.54
2022-10-09T21:15:59.907Z,96.42
2022-10-09T21:18:26.614Z,95.98
2022-10-09T21:20:53.289Z,96.74
2022-10-09T21:23:20.162Z,97.63
2022-10-09T21:25:51.814Z,96.74
2022-10-09T21:28:20.441Z,96.70
2022-10-09T21:30:47.639Z,97.12
2022-10-09T21:33:15.043Z,96.26
2022-10-09T21:35:44.284Z,96.40
2022-10-09T21:38:17.588Z,97.85
2022-10-09T21:40:44.972Z,97.93
2022-10-09T21:43:12.224Z,98.29
2022-10-09T21:45:39.844Z,98.82
2022-10-09T21:48:07.519Z,98.64
2022-10-09T21:50:36.290Z,98.96
2022-10-09T21:53:04.173Z,98.86
2022-10-09T21:55:30.886Z,98.54
2022-10-09T21:57:57.840Z,98.47
2022-10-09T22:00:24.965Z,98.84
2022-10-09T22:02:52.130Z,99.61
2022-10-09T22:05:21.492Z,99.51
2022-10-09T22:07:48.693Z,100.00
2022-10-09T22:10:15.510Z,100.00
2022-10-09T22:12:42.291Z,100.00
2022-10-09T22:15:09.563Z,100.00
2022-10-09T22:17:36.495Z,99.34
2022-10-09T22:20:04.305Z,100.00
2022-10-09T22:22:31.047Z,100.00
2022-10-09T22:24:59.481Z,100.00
2022-10-09T22:27:26.431Z,100.00
2022-10-09T22:29:53.288Z,100.00
2022-10-09T22:32:20.068Z,100.00
2022-10-09T22:34:46.731Z,100.00
2022-10-09T22:37:13.419Z,100.00
2022-10-09T22:39:40.106Z,100.00
2022-10-09T22:42:06.836Z,100.00
2022-10-09T22:44:33.528Z,100.00
2022-10-09T22:47:00.285Z,100.00
2022-10-09T22:49:27.455Z,100.00
2022-10-09T22:51:54.241Z,100.00
2022-10-09T22:54:22.008Z,100.00
2022-10-09T22:56:48.844Z,100.00
2022-10-09T22:59:17.984Z,100.00
2022-10-09T23:01:54.679Z,100.00
2022-10-09T23:04:22.991Z,100.00
2022-10-09T23:06:52.072Z,100.00
2022-10-09T23:09:21.556Z,100.00
2022-10-09T23:11:48.749Z,100.00
2022-10-09T23:14:15.501Z,100.00
2022-10-09T23:16:42.755Z,100.00
2022-10-09T23:19:10.165Z,100.00
2022-10-09T23:21:41.238Z,100.00
2022-10-09T23:24:09.487Z,100.00
2022-10-09T23:26:37.787Z,100.00
2022-10-09T23:29:08.178Z,100.00
2022-10-09T23:31:36.155Z,100.00
2022-10-09T23:34:04.871Z,100.00
2022-10-09T23:36:32.127Z,100.00
2022-10-09T23:39:00.600Z,100.00
2022-10-09T23:41:28.844Z,100.00
2022-10-09T23:43:55.989Z,100.00
2022-10-09T23:46:25.267Z,100.00
2022-10-09T23:48:52.356Z,100.00
2022-10-09T23:51:20.652Z,100.00
2022-10-09T23:53:47.786Z,100.00
2022-10-09T23:56:18.210Z,100.00
2022-10-09T23:58:45.657Z,100.00
